Terminal Aerodrome Forecast
Issued by NWS Wilmington, OH

Home | Current Version | Previous Version | Text Only | Print | Product List | Glossary On
Versions: 1 2 3 4 5 6 7 8 9 10 11 12 13 14 15
000
FTUS41 KILN 122331
TAFCMH
TAF
KCMH 122331Z 1300/1324 30014KT P6SM VCSH OVC040
      TEMPO 1300/1302 BKN025
     FM130600 29009KT P6SM SCT040
     FM131000 27007KT P6SM BKN120
     FM131300 22007KT P6SM BKN070
     FM131500 19011KT 5SM -SN OVC040
     FM132200 19010KT P6SM VCSH OVC035=

USA.gov is the U.S. government's official web portal to all federal, state and local government web resources and services.